Ergebnisliste vom: 24.08.2014 - Kallinchen Triathlon2014 - Supersprint - 0,3-13-3,3 km

weitere Ergebnisse >>

Plg. Plm Plw StNr. Name,Vorname Verein Ak AKm AKw Endzeit Schwimmzeit Radzeit Schwimm+Rad Laufzeit Rückst. WB Bem BC
1 1   834 Kleemann, Guido Weltraumjogger Berlin TM40 1   0:43:10 0:05:53( 23 ) 0:24:02( 1 ) 0:29:55( 1 ) 0:13:15( 1 ) 0:00:00 2    
2 2   772 Büttel, Janne Weltraumjogger Berlin mSchA 1   0:43:46 0:05:15( 7 ) 0:24:54( 2 ) 0:30:09( 2 ) 0:13:37( 3 ) 0:00:36 2    
3 3   776 Cuccoli, Nico TuS Neukölln Berlin mJugB 1   0:44:56 0:04:48( 1 ) 0:25:33( 7 ) 0:30:21( 4 ) 0:14:35( 6 ) 0:01:46 2    
4 4   913 Skalitz, Erik TuS Neukölln mSchA 2   0:45:02 0:05:44( 18 ) 0:25:45( 9 ) 0:31:29( 8 ) 0:13:33( 2 ) 0:01:52 2    
5 5   903 Schilling, Oliver Tus Neukölln Berlin mJugB 2   0:45:11 0:04:50( 2 ) 0:25:32( 5 ) 0:30:22( 5 ) 0:14:49( 10 ) 0:02:01 2    
6 6   835 Kleemann, Jonas Weltraumjogger Berlin mJugB 3   0:45:23 0:04:51( 3 ) 0:25:28( 4 ) 0:30:19( 3 ) 0:15:04( 12 ) 0:02:13 2    
7 7   923 Thieme, Jannik TuS Neukölln Berlin mJugB 4   0:45:31 0:05:37( 16 ) 0:25:44( 8 ) 0:31:21( 6 ) 0:14:10( 5 ) 0:02:21 2    
8 8   812 Kosbothe, Max Emil Triathlonverein Berlin 09 mSchA 3   0:46:40 0:05:35( 15 ) 0:26:16( 15 ) 0:31:51( 12 ) 0:14:49( 10 ) 0:03:30 2    
9 9   826 Kaden, Wilhelm TVB 09 mJugB 5   0:47:05 0:05:22( 9 ) 0:26:06( 12 ) 0:31:28( 7 ) 0:15:37( 22 ) 0:03:55 2    
10 10   771 Buschick, Bodo RSV Blankenfelde mJugB 6   0:47:21 0:05:16( 8 ) 0:26:22( 16 ) 0:31:38( 10 ) 0:15:43( 25 ) 0:04:11 2    
11 11   761 Beinlich, Jörg Berlin TM45 1   0:47:40 0:06:17( 33 ) 0:25:18( 3 ) 0:31:35( 9 ) 0:16:05( 31 ) 0:04:30 2    
12   1 899 Saremba, Hanna Triathlon Potsdam wSchA   1 0:47:45 0:05:32( 14 ) 0:27:09( 23 ) 0:32:41( 13 ) 0:15:04( 12 ) 0:04:35 2    
12   1 928 Ungewickell, Lara Thekla TuS Neukölln Berlin wSchA   1 0:47:45 0:05:09( 5 ) 0:27:51( 27 ) 0:33:00( 16 ) 0:14:45( 9 ) 0:04:35 2    
14 12   769 Brunkow, Jonas DLRG Luckenwalde mSchA 4   0:48:22 0:05:30( 13 ) 0:28:13( 30 ) 0:33:43( 23 ) 0:14:39( 7 ) 0:05:12 2    
15 13   770 Brunkow, Mario Treuenbrietzen TM45 2   0:48:30 0:07:35( 77 ) 0:25:32( 6 ) 0:33:07( 18 ) 0:15:23( 19 ) 0:05:20 2    
16 14   894 Rogge, Ernesto böbblingen TM35 1   0:48:32 0:06:57( 43 ) 0:26:15( 14 ) 0:33:12( 20 ) 0:15:20( 17 ) 0:05:22 2    
17 15   977 Rex, Brgam TSV Cottbus mJugB 7   0:48:35 0:06:12( 30 ) 0:26:46( 18 ) 0:32:58( 15 ) 0:15:37( 22 ) 0:05:25 2    
18 16   804 Günther, Sean Felix Tri-Team ATS Kulmbach mJugB 8   0:48:39 0:06:30( 35 ) 0:26:30( 17 ) 0:33:00( 16 ) 0:15:39( 24 ) 0:05:29 2    
19   3 806 Haupt, Steffi BSV Medizin Marzahn 1990 TW35   1 0:48:55 0:05:05( 4 ) 0:28:18( 31 ) 0:33:23( 21 ) 0:15:32( 20 ) 0:05:45 2    
20 17   949 Wittig, Matthias Berlin TM25 1   0:49:10 0:06:24( 34 ) 0:28:44( 33 ) 0:35:08( 31 ) 0:14:02( 4 ) 0:06:00 2    
21   4 773 Büttel, Lena Weltraumjogger Berlin wJugB   1 0:49:37 0:05:39( 17 ) 0:27:03( 22 ) 0:32:42( 14 ) 0:16:55( 51 ) 0:06:27 2    
22 18   774 Andratschke, Nils Weltraumjogger Berlin mSchA 5   0:49:39 0:06:13( 31 ) 0:27:17( 24 ) 0:33:30( 22 ) 0:16:09( 33 ) 0:06:29 2    
23 19   967 Gärtner, Heiko Weltraumjogger Berlin TM50 1   0:49:54 0:07:19( 58 ) 0:26:52( 21 ) 0:34:11( 26 ) 0:15:43( 25 ) 0:06:44 2    
24 20   937 Weber, Karsten TG Neuss TM45 3   0:49:57 0:07:06( 49 ) 0:26:02( 11 ) 0:33:08( 19 ) 0:16:49( 45 ) 0:06:47 2    
25 21   799 Geist, Robert Berlin TM20 1   0:50:04 0:05:09( 5 ) 0:29:37( 45 ) 0:34:46( 28 ) 0:15:18( 16 ) 0:06:54 2    
26 22   751 Ahrend, Jacob Triathlon Verein Berlin 09 mJugB 9   0:50:21 0:05:51( 21 ) 0:25:53( 10 ) 0:31:44( 11 ) 0:18:37( 84 ) 0:07:11 2    
27 23   853 Künzel, Daniel Zossen TM30 1   0:50:25 0:07:10( 54 ) 0:26:48( 19 ) 0:33:58( 25 ) 0:16:27( 37 ) 0:07:15 2    
28 24   852 Kummerow, Philipp FSV Babelsberg 74 TM25 2   0:50:45 0:07:29( 67 ) 0:28:05( 29 ) 0:35:34( 35 ) 0:15:11( 14 ) 0:07:35 2    
29   5 823 Just, Anna DLRG Luckenwalde wJugA   1 0:50:51 0:06:51( 38 ) 0:27:56( 28 ) 0:34:47( 29 ) 0:16:04( 30 ) 0:07:41 2    
30 25   885 Reimann, Gregor AdW Kanu mJugA 1   0:50:53 0:06:04( 26 ) 0:30:09( 57 ) 0:36:13( 44 ) 0:14:40( 8 ) 0:07:43 2    
31 26   871 Müller, Dietmar TiB 1848 Berlin Triathlon TM45 4   0:51:06 0:07:04( 47 ) 0:28:46( 36 ) 0:35:50( 38 ) 0:15:16( 15 ) 0:07:56 2    
32 27   936 Wasserkampf, Leonard TVB 09 mJugB 10   0:51:09 0:05:29( 11 ) 0:30:06( 54 ) 0:35:35( 36 ) 0:15:34( 21 ) 0:07:59 2    
33 28   863 Loeffler, Rainer Fichtenläufer TM45 5   0:51:13 0:08:09(103) 0:26:14( 13 ) 0:34:23( 27 ) 0:16:50( 47 ) 0:08:03 2    
34 29   832 Keller, Felix TSV Treuenbrietzen mJugB 11   0:52:18 0:05:55( 24 ) 0:29:29( 44 ) 0:35:24( 32 ) 0:16:54( 48 ) 0:09:08 2    
35 30   821 Jost, Sebastian CarveStarve TM30 2   0:52:21 0:07:17( 55 ) 0:28:54( 39 ) 0:36:11( 42 ) 0:16:10( 34 ) 0:09:11 2    
36 31   900 Schaller, Ronny Rangsdorf TM35 2   0:52:50 0:07:08( 52 ) 0:26:49( 20 ) 0:33:57( 24 ) 0:18:53( 90 ) 0:09:40 2    
37 32   877 Neumann, Jens Jüterbog TM30 3   0:53:02 0:07:33( 74 ) 0:29:38( 46 ) 0:37:11( 49 ) 0:15:51( 28 ) 0:09:52 2    
38   6 836 Kleppek, Runa Weltraumjogger Berlin wJugB   2 0:53:04 0:07:38( 80 ) 0:27:50( 26 ) 0:35:28( 34 ) 0:17:36( 68 ) 0:09:54 2    
39   7 947 Wetzk, Dani TSV Cottbus TW40   1 0:53:11 0:07:05( 48 ) 0:29:09( 41 ) 0:36:14( 45 ) 0:16:57( 52 ) 0:10:01 2    
40 33   849 Kühne, Jürgen Am Mellensee OT Saalow TM60 1   0:53:22 0:07:29( 67 ) 0:27:23( 25 ) 0:34:52( 30 ) 0:18:30( 83 ) 0:10:12 2    
41 34   915 Stahlkopf, Daniel Blankenfelde TM30 4   0:53:23 0:08:35(120) 0:29:28( 43 ) 0:38:03( 57 ) 0:15:20( 18 ) 0:10:13 2    
42   8 968 Gärtner, Monika Weltraumjogger Berlin TW50   1 0:53:39 0:07:32( 72 ) 0:28:26( 32 ) 0:35:58( 40 ) 0:17:41( 69 ) 0:10:29 2    
43 35   782 Weigelt, Karsten Zehlendorfer Wespen TM45 6   0:53:41 0:07:09( 53 ) 0:29:43( 49 ) 0:36:52( 48 ) 0:16:49( 45 ) 0:10:31 2    
44 36   893 Rodewald, Philipp Berlin TM25 3   0:53:45 0:07:33( 74 ) 0:29:39( 47 ) 0:37:12( 50 ) 0:16:33( 39 ) 0:10:35 2    
45 37   957 Werksnies, Jürgen Wasserfreunde Spandau TM45 7   0:53:48 0:06:37( 37 ) 0:30:05( 53 ) 0:36:42( 47 ) 0:17:06( 57 ) 0:10:38 2    
46 38   824 Just, Florian DLRG Luckenwalde mSchA 6   0:53:53 0:06:56( 41 ) 0:28:44( 34 ) 0:35:40( 37 ) 0:18:13( 77 ) 0:10:43 2    
47 39   872 Müller, Joshua TVB 09 mSchA 7   0:53:57 0:06:11( 29 ) 0:30:00( 51 ) 0:36:11( 42 ) 0:17:46( 70 ) 0:10:47 2    
48 40   946 Wesoly, Tino Alles im Laufschritt TM50 2   0:54:17 0:07:18( 57 ) 0:31:11( 76 ) 0:38:29( 67 ) 0:15:48( 27 ) 0:11:07 2    
49 41   765 Bolduan, Steffen Zossener- Weinbergschnecken TM40 2   0:54:32 0:09:48(168) 0:28:46( 37 ) 0:38:34( 70 ) 0:15:58( 29 ) 0:11:22 2    
50 42   811 Retzlaff, Thomas Verein Aqua Berlin TM55 1   0:54:33 0:06:08( 27 ) 0:29:17( 42 ) 0:35:25( 33 ) 0:19:08( 93 ) 0:11:23 2    
51 43   816 Isberner, André Mahlow TM35 3   0:54:47 0:07:48( 88 ) 0:30:37( 64 ) 0:38:25( 63 ) 0:16:22( 36 ) 0:11:37 2    
52   9 901 Scharnowske, Antje SSV Lichtenrade TW45   1 0:54:55 0:08:20(108) 0:29:41( 48 ) 0:38:01( 55 ) 0:16:54( 48 ) 0:11:45 2    
53 44   784 Dümecke, René Zeuthen TM50 3   0:55:09 0:08:11(104) 0:29:56( 50 ) 0:38:07( 59 ) 0:17:02( 54 ) 0:11:59 2    
54 45   932 von Weschpfennig, Christian Rangsdorf OT Groß Machnow TM35 4   0:55:17 0:07:49( 89 ) 0:30:47( 67 ) 0:38:36( 71 ) 0:16:41( 43 ) 0:12:07 2    
55   10 884 Radnik, Carolin Berlin wJugA   2 0:55:18 0:07:01( 45 ) 0:30:15( 58 ) 0:37:16( 51 ) 0:18:02( 72 ) 0:12:08 2    
56 46   905 Schmidt, Heiko Berlin TM45 8   0:55:37 0:07:00( 44 ) 0:28:50( 38 ) 0:35:50( 38 ) 0:19:47(105) 0:12:27 2    
57   11 861 Lochner, Emily DLRG Tempelhof wJugB   3 0:55:42 0:06:56( 41 ) 0:31:20( 81 ) 0:38:16( 61 ) 0:17:26( 61 ) 0:12:32 2    
58 47   841 Köhler, Christoph Krabbelgruppe TM35 5   0:55:45 0:08:01( 99 ) 0:31:36( 83 ) 0:39:37( 86 ) 0:16:08( 32 ) 0:12:35 2    
59   12 886 Reimann, Sabrina SSV Wildau wJugA   3 0:55:52 0:05:48( 19 ) 0:32:14( 94 ) 0:38:02( 56 ) 0:17:50( 71 ) 0:12:42 2    
60 48   904 Schlesinger, Harald Berlin TM50 4   0:56:02 0:08:07(102) 0:30:25( 60 ) 0:38:32( 69 ) 0:17:30( 63 ) 0:12:52 2    
61 49   797 Frommer, Maximilian AKK Birkenheide mSchA 8   0:56:08 0:07:06( 49 ) 0:32:29( 98 ) 0:39:35( 85 ) 0:16:33( 38 ) 0:12:58 2    
62 50   920 Bock, Peter Radsportgruppe Sonntag TM55 2   0:56:10 0:07:28( 66 ) 0:30:37( 64 ) 0:38:05( 58 ) 0:18:05( 74 ) 0:13:00 2    
63 51   779 Dettmann, Kempen Berlin TM25 4   0:56:11 0:07:50( 90 ) 0:30:52( 69 ) 0:38:42( 74 ) 0:17:29( 62 ) 0:13:01 2    
64 52   883 Rademacher, Marcus Berlin TM25 5   0:56:12 0:07:59( 96 ) 0:31:15( 79 ) 0:39:14( 83 ) 0:16:58( 53 ) 0:13:02 2    
65 53   934 Waibel, Jens Berlin TM45 9   0:56:13 0:07:36( 78 ) 0:31:03( 73 ) 0:38:39( 73 ) 0:17:34( 66 ) 0:13:03 2    
66   13 873 Munz, Elke TSV Cottbus TW50   2 0:56:14 0:07:40( 81 ) 0:28:45( 35 ) 0:36:25( 46 ) 0:19:49(107) 0:13:04 2    
67 54   787 Eckstein, Björn DRK Kreisverband Fläming-Spreewald TM25 6   0:56:19 0:07:17( 55 ) 0:32:27( 97 ) 0:39:44( 88 ) 0:16:35( 40 ) 0:13:09 2    
68   14 969 Haase, Elisa KSV Neptun Berlin 1889 wSchA   3 0:56:47 0:05:51( 21 ) 0:30:08( 56 ) 0:35:59( 41 ) 0:20:48(123) 0:13:37 2    
69 55   944 Werner, Andreas Freiberg TM55 3   0:57:00 0:08:17(105) 0:30:26( 61 ) 0:38:43( 75 ) 0:18:17( 78 ) 0:13:50 2    
70   15 862 Lochner-Zerbe, Sabine SSV Lichtenrade TW55   1 0:57:01 0:08:35(120) 0:30:53( 70 ) 0:39:28( 84 ) 0:17:33( 64 ) 0:13:51 2    
71 56   793 Fiedler, Stefan Berlin TM40 3   0:57:13 0:07:30( 69 ) 0:30:58( 71 ) 0:38:28( 65 ) 0:18:45( 86 ) 0:14:03 2    
72 57   854 Kürschner, Andy Berlin TM40 4   0:57:27 0:07:54( 93 ) 0:33:12(108) 0:41:06(101) 0:16:21( 35 ) 0:14:17 2    
73 58   973 Werner, Tilo MSV Meusegast TM45 10   0:57:29 0:09:08(143) 0:31:12( 77 ) 0:40:20( 93 ) 0:17:09( 58 ) 0:14:19 2    
74 59   892 Rodewald, Detlef LT Britzer Garten TM60 2   0:57:56 0:08:43(127) 0:29:08( 40 ) 0:37:51( 54 ) 0:20:05(114) 0:14:46 2    
75   16 767 Borau, Heike Tung Dojo Berlin-Kreuzberg TW45   2 0:57:57 0:08:06(101) 0:31:00( 72 ) 0:39:06( 80 ) 0:18:51( 88 ) 0:14:47 2    
76 60   789 Ernicke, Markus Nuthe Urstromtal TM30 5   0:57:58 0:05:22( 9 ) 0:32:46(102) 0:38:08( 60 ) 0:19:50(108) 0:14:48 2    
77 61   956 Vollmer, Dr., Harald Zehlendorfer Wespen TM50 5   0:58:01 0:06:02( 25 ) 0:32:26( 96 ) 0:38:28( 65 ) 0:19:33(100) 0:14:51 2    
78   17 801 Grau, Heike HUxRay TW50   3 0:58:02 0:08:01( 99 ) 0:33:25(112) 0:41:26(104) 0:16:36( 41 ) 0:14:52 2    
79 62   895 Rösener, Jonas VfV Spandau Tri Teens mJugB 12   0:58:04 0:07:27( 65 ) 0:31:38( 84 ) 0:39:05( 79 ) 0:18:59( 91 ) 0:14:54 2    
80 63   803 Großheide, Jan Berlin mJugB 13   0:58:06 0:07:22( 61 ) 0:33:40(116) 0:41:02( 99 ) 0:17:04( 56 ) 0:14:56 2    
81   18 931 Vollbrecht, Regina BSV Friesen TW35   2 0:58:12 0:10:58(173) 0:30:29( 62 ) 0:41:27(105) 0:16:45( 44 ) 0:15:02 2    
82   19 760 Becker, Finnja SC Poseidon Berlin wJugA   4 0:58:14 0:05:29( 11 ) 0:32:49(103) 0:38:18( 62 ) 0:19:56(110) 0:15:04 2    
82   19 914 Solheid, Chantal Weltraumjogger Berlin wSchA   4 0:58:14 0:07:07( 51 ) 0:32:00( 91 ) 0:39:07( 81 ) 0:19:07( 92 ) 0:15:04 2    
84 64   794 Förster, Ulrich TUS WE Lügde TM50 6   0:58:39 0:07:44( 85 ) 0:30:45( 66 ) 0:38:29( 67 ) 0:20:10(115) 0:15:29 2    
85   21 918 Stenzel, Kathrin Nitzi TW40   2 0:58:40 0:07:50( 90 ) 0:31:04( 74 ) 0:38:54( 77 ) 0:19:46(104) 0:15:30 2    
86 65   925 Töpper, Steffen Zossen TM50 7   0:58:41 0:07:31( 70 ) 0:31:40( 85 ) 0:39:11( 82 ) 0:19:30( 99 ) 0:15:31 2    
87   22 754 Baecker, Andrea Potsdam TW40   3 0:58:46 0:07:24( 62 ) 0:32:56(105) 0:40:20( 93 ) 0:18:26( 82 ) 0:15:36 2    
88   23 813 Holzmüller, Julia Leipzig TW25   1 0:58:53 0:08:37(122) 0:31:04( 74 ) 0:39:41( 87 ) 0:19:12( 95 ) 0:15:43 2    
89 66   757 Bauermeister, Marcel Dresden TM20 2   0:58:57 0:07:37( 79 ) 0:34:41(127) 0:42:18(121) 0:16:39( 42 ) 0:15:47 2    
90 67   954 Ziehe, Pierre CarveStarve TM30 6   0:59:00 0:08:26(113) 0:31:43( 86 ) 0:40:09( 91 ) 0:18:51( 88 ) 0:15:50 2    
91   24 929 Valentine, Sabina Berlin TW45   3 0:59:01 0:07:41( 82 ) 0:34:11(123) 0:41:52(114) 0:17:09( 58 ) 0:15:51 2    
92   25 855 Lange, Jette   TW25   2 0:59:07 0:08:29(116) 0:30:35( 63 ) 0:39:04( 78 ) 0:20:03(113) 0:15:57 2    
93   26 962 Apel, Sophie AKK Birkenheide wJun   1 0:59:12 0:06:54( 40 ) 0:35:02(129) 0:41:56(117) 0:17:16( 60 ) 0:16:02 2    
94   27 939 Weber-Jakob, Daniela Potsdam TW40   4 0:59:17 0:09:22(150) 0:33:01(106) 0:42:23(122) 0:16:54( 48 ) 0:16:07 2    
95 68   966 Zilm, Matthias Teupitz TM40 5   0:59:20 0:09:46(166) 0:30:20( 59 ) 0:40:06( 90 ) 0:19:14( 96 ) 0:16:10 2    
96 69   838 Klocke, Christian 6-er Rat TM35 6   0:59:25 0:08:27(114) 0:32:51(104) 0:41:18(102) 0:18:07( 75 ) 0:16:15 2    
97   28 865 Lüdtke, Julia Berlin TW20   1 0:59:40 0:06:16( 32 ) 0:35:21(132) 0:41:37(109) 0:18:03( 73 ) 0:16:30 2    
98 70   919 Stern, Sebastian LLG Luckenwalde TM25 7   0:59:51 0:06:35( 36 ) 0:36:13(144) 0:42:48(127) 0:17:03( 55 ) 0:16:41 2    
99 71   755 Baecker, Thomas Potsdam TM45 11   1:00:03 0:08:40(124) 0:32:12( 92 ) 0:40:52( 98 ) 0:19:11( 94 ) 0:16:53 2    
100 72   820 Jerke, Edgar LLG Luckenwalde TM25 8   1:00:05 0:08:21(109) 0:31:32( 82 ) 0:39:53( 89 ) 0:20:12(116) 0:16:55 2    
101   29 910 Schwoche-Lindenborn, Heike SG Stern TW50   4 1:00:10 0:08:21(109) 0:33:30(113) 0:41:51(113) 0:18:19( 79 ) 0:17:00 2    
102   30 817 Jaekel, Irina Hoppegarten TW50   5 1:00:37 0:07:03( 46 ) 0:33:15(109) 0:40:18( 92 ) 0:20:19(118) 0:17:27 2    
103 73   846 Kube, Sidney DLRG-Berlin TM20 3   1:00:38 0:05:50( 20 ) 0:31:44( 87 ) 0:37:34( 53 ) 0:23:04(152) 0:17:28 2    
104   31 891 Rode, Claudia Tsv 1880 Gera- Zwötzen TW30   1 1:00:43 0:07:47( 87 ) 0:34:47(128) 0:42:34(124) 0:18:09( 76 ) 0:17:33 2    
105   32 792 Fenner, Claudia Königs Wusterhausen TW25   3 1:00:47 0:08:25(112) 0:32:39(100) 0:41:04(100) 0:19:43(103) 0:17:37 2    
106   33 842 Kohnert, Hannah Rangsdorf wJugB   4 1:00:57 0:06:10( 28 ) 0:35:26(134) 0:41:36(108) 0:19:21( 97 ) 0:17:47 2    
107 74   971 Lutomski, Martin Märchenwiese TM40 6   1:01:03 0:09:21(149) 0:32:21( 95 ) 0:41:42(111) 0:19:21( 97 ) 0:17:53 2    
108 75   965 Sombert, Peter Fischerei Kallinchen TM60 3   1:01:04 0:08:19(106) 0:30:08( 55 ) 0:38:27( 64 ) 0:22:37(148) 0:17:54 2    
109 76   898 Santl, Jürgen LT 2000 TM60 4   1:01:05 0:08:38(123) 0:34:03(120) 0:42:41(125) 0:18:24( 80 ) 0:17:55 2    
110 77   762 Benker, Heiko LLG Luckenwalde TM45 12   1:01:17 0:08:51(130) 0:32:34( 99 ) 0:41:25(103) 0:19:52(109) 0:18:07 2    
111   34 902 Schiewek, Anke SV Wasserfreunde Brandenburg TW45   4 1:01:32 0:08:33(119) 0:32:12( 92 ) 0:40:45( 96 ) 0:20:47(121) 0:18:22 2    
112   35 809 Henker, Christine Dresden TW30   2 1:01:46 0:08:30(117) 0:31:59( 89 ) 0:40:29( 95 ) 0:21:17(130) 0:18:36 2    
113 78   890 Rockmann, Detlef Berlin TM65 1   1:02:01 0:07:58( 94 ) 0:30:51( 68 ) 0:38:49( 76 ) 0:23:12(154) 0:18:51 2    
114 79   828 Kaiser, Enrico SV Blau-Weiß Zossen eeV TM25 9   1:02:02 0:09:02(137) 0:35:25(133) 0:44:27(138) 0:17:35( 67 ) 0:18:52 2    
115 80   858 Lehmann, Max Berlin TM20 4   1:02:11 0:08:00( 98 ) 0:33:53(118) 0:41:53(115) 0:20:18(117) 0:19:01 2    
116   36 786 Ebel, Laura Am Mellensee TW20   2 1:02:25 0:07:26( 64 ) 0:34:03(120) 0:41:29(106) 0:20:56(125) 0:19:15 2    
117   37 764 Blume, Hortensia BSV Friesen TW30   3 1:02:31 0:07:20( 60 ) 0:31:18( 80 ) 0:38:38( 72 ) 0:23:53(159) 0:19:21 2    
118   38 922 Taylor, Dolores Arizona Wild Cats TW45   5 1:02:34 0:09:02(137) 0:33:31(114) 0:42:33(123) 0:20:01(111) 0:19:24 2    
119   39 856 Lasch, Theresa Dresden TW30   4 1:02:50 0:08:28(115) 0:33:04(107) 0:41:32(107) 0:21:18(132) 0:19:40 2    
120   40 960 Lander, Monique AKK Birkenheide TW30   5 1:02:52 0:07:42( 83 ) 0:35:08(130) 0:42:50(128) 0:20:02(112) 0:19:42 2    
121   41 848 Kühne, Heike Burg TW50   6 1:02:53 0:09:36(157) 0:31:13( 78 ) 0:40:49( 97 ) 0:22:04(144) 0:19:43 2    
122   42 868 Miethke, Angela BSV Friesen TW55   2 1:02:55 0:10:06(171) 0:31:55( 88 ) 0:42:01(119) 0:20:54(124) 0:19:45 2    
123 81   840 Knebel, Thomas Bierathleten TM25 10   1:03:07 0:08:19(106) 0:33:24(111) 0:41:43(112) 0:21:24(134) 0:19:57 2    
124   43 860 Leutloff-Grandits, Carolin Berlin TW40   5 1:03:13 0:09:00(134) 0:33:46(117) 0:42:46(126) 0:20:27(119) 0:20:03 2    
125 82   814 Doering, Alexander AKK Birkenheide TM40 7   1:03:19 0:07:34( 76 ) 0:34:05(122) 0:41:39(110) 0:21:40(140) 0:20:09 2    
126 83   788 Eisenfeldt, Dirk Tempelhofer Bären TM45 13   1:03:41 0:07:58( 94 ) 0:36:58(151) 0:44:56(143) 0:18:45( 86 ) 0:20:31 2    
127 84   778 Dähne, Jakob Lübben mJugA 2   1:03:48 0:09:04(140) 0:36:00(141) 0:45:04(146) 0:18:44( 85 ) 0:20:38 2    
128   44 875 Neuendorf, Jacqueline AKK Birkenheide TW25   4 1:03:56 0:08:41(125) 0:36:50(148) 0:45:31(149) 0:18:25( 81 ) 0:20:46 2    
129 85   959 Thiele, Kathi AKK Birkenheide TM35 7   1:04:12 0:07:42( 83 ) 0:36:53(149) 0:44:35(139) 0:19:37(101) 0:21:02 2    
130   45 798 Perlick, Hella   TW45   6 1:04:39 0:07:25( 63 ) 0:37:36(155) 0:45:01(145) 0:19:38(102) 0:21:29 2    
131 86   795 Fox, Thomas 6-er Rat TM45 14   1:04:48 0:09:07(142) 0:34:25(125) 0:43:32(130) 0:21:16(128) 0:21:38 2    
132 87   845 Kube, Helmut DAV-Berlin TM70 1   1:05:02 0:09:37(158) 0:34:03(119) 0:43:40(132) 0:21:22(133) 0:21:52 2    
133 88   964 Kranz, Gerthold AKK Birkenheide TM60 5   1:05:08 0:09:30(152) 0:34:13(124) 0:43:43(133) 0:21:25(136) 0:21:58 2    
134 89   974 Springenberg, Carsten Berlin TM40 8   1:05:35 0:09:58(170) 0:31:59( 89 ) 0:41:57(118) 0:23:38(158) 0:22:25 2    
135 90   907 Schneider, Marc nigrum-est-bonum.de mJugA 3   1:05:45 0:07:32( 72 ) 0:38:25(160) 0:45:57(155) 0:19:48(106) 0:22:35 2    
136   46 943 Weppler-Meyer, Barbara Berlin TW60   1 1:06:01 0:09:18(148) 0:36:14(146) 0:45:32(150) 0:20:29(120) 0:22:51 2    
137 91   752 Altermann, Frank Berlin TM50 8   1:06:02 0:09:14(146) 0:35:42(138) 0:44:56(143) 0:21:06(127) 0:22:52 2    
138   47 950 Wutzke, Ines Potsdam TW40   6 1:06:04 0:08:44(128) 0:35:53(140) 0:44:37(140) 0:21:27(137) 0:22:54 2    
139 92   819 Jerke, Detlef LLG Luckenwalde TM50 9   1:06:14 0:09:29(151) 0:33:36(115) 0:43:05(129) 0:23:09(153) 0:23:04 2    
140 93   927 Uecker, Marko Berlin TM35 8   1:06:15 0:08:56(132) 0:39:46(167) 0:48:42(165) 0:17:33( 64 ) 0:23:05 2    
141   48 859 Leifeld, Sabine Zossen TW45   7 1:06:52 0:08:41(125) 0:36:54(150) 0:45:35(151) 0:21:17(130) 0:23:42 2    
142   49 815 Irmscher, Franziska Zossen TW40   7 1:06:53 0:09:06(141) 0:36:31(147) 0:45:37(152) 0:21:16(128) 0:23:43 2    
143 94   930 Vesper, Heiko Nitzi TM40 9   1:06:56 0:08:55(131) 0:35:16(131) 0:44:11(136) 0:22:45(149) 0:23:46 2    
144   50 942 Weigelt, Virginia Dresden TW20   3 1:07:18 0:06:53( 39 ) 0:38:27(161) 0:45:20(148) 0:21:58(143) 0:24:08 2    
145   51 874 Mutscher, Jana Rangsdorf TW30   6 1:07:26 0:09:34(155) 0:36:11(143) 0:45:45(153) 0:21:41(141) 0:24:16 2    
146   52 781 Du Chesne, Charlotte   wJun   2 1:07:38 0:07:19( 58 ) 0:38:44(162) 0:46:03(156) 0:21:35(139) 0:24:28 2    
147   53 843 Kowalke, Rebecca VfV Spandau wSchA   5 1:07:48 0:09:01(136) 0:33:15(109) 0:42:16(120) 0:25:32(167) 0:24:38 2    
148   54 896 Rufflet, Franka Potsdam TW40   8 1:07:53 0:08:59(133) 0:37:21(153) 0:46:20(157) 0:21:33(138) 0:24:43 2    
149 95   777 Dähne, Gerd Lübben TM45 15   1:08:01 0:07:53( 92 ) 0:36:08(142) 0:44:01(135) 0:24:00(160) 0:24:51 2    
150 96   889 Rieche, Egbert 6-er Rat TM50 10   1:08:05 0:09:12(145) 0:35:32(135) 0:44:44(142) 0:23:21(156) 0:24:55 2    
151 97   955 Zwingelberg, Olaf 6-er Rat TM45 16   1:08:06 0:07:46( 86 ) 0:35:52(139) 0:43:38(131) 0:24:28(165) 0:24:56 2    
152   55 796 Frey, Elke SC Sonnenschein-Plus TW50   7 1:08:07 0:09:35(156) 0:35:37(136) 0:45:12(147) 0:22:55(151) 0:24:57 2    
153   56 887 Remter, Lisa Rangsdorf wJugA   5 1:08:18 0:09:11(144) 0:32:42(101) 0:41:53(115) 0:26:25(169) 0:25:08 2    
154   57 961 Sarnighausen, Ines AKK Birkenheide TW65   1 1:08:19 0:08:32(118) 0:35:41(137) 0:44:13(137) 0:24:06(162) 0:25:09 2    
155   58 953 Ziegler, Petra Berlin TW45   8 1:08:33 0:09:03(139) 0:37:21(153) 0:46:24(158) 0:22:09(145) 0:25:23 2    
156   59 963 Kranz, Kirsten AKK Birkenheide TW50   8 1:08:40 0:07:59( 96 ) 0:37:50(156) 0:45:49(154) 0:22:51(150) 0:25:30 2    
157   60 897 Santl, Dorit Potsdam TW55   3 1:09:20 0:09:49(169) 0:37:18(152) 0:47:07(159) 0:22:13(146) 0:26:10 2    
158   61 829 Kaiser, Madeleine Zossen TW30   7 1:10:02 0:09:42(162) 0:38:24(159) 0:48:06(162) 0:21:56(142) 0:26:52 2    
159   62 888 Richter, Elisa Chemnitz TW20   4 1:10:06 0:09:39(160) 0:38:01(157) 0:47:40(160) 0:22:26(147) 0:26:56 2    
160   63 916 Stamos, Kristina Dresden TW30   8 1:10:33 0:08:24(111) 0:36:13(144) 0:44:37(140) 0:25:56(168) 0:27:23 2    
161 98   758 Baumert, Rainer 6-er Rat TM40 10   1:10:35 0:11:05(174) 0:38:06(158) 0:49:11(167) 0:21:24(134) 0:27:25 2    
162 99   881 Pawlak, Rene Zeesen TM40 11   1:11:00 0:09:16(147) 0:34:35(126) 0:43:51(134) 0:27:09(172) 0:27:50 2    
163   64 935 Walpuski, Jeany Berlin TW25   5 1:11:39 0:09:43(163) 0:38:44(162) 0:48:27(163) 0:23:12(154) 0:28:29 2    
164 100   976 Dittmann, Nicolas Michas Bahnhof TM25 11   1:11:40 0:09:00(134) 0:41:41(170) 0:50:41(170) 0:20:59(126) 0:28:30 2    
165   65 972 Richter, Lauren Berlin TW20   5 1:12:11 0:08:48(129) 0:39:06(166) 0:47:54(161) 0:24:17(164) 0:29:01 2    
166   66 876 Neuendorf, Manuela AKK Birkenheide TW50   9 1:12:57 0:09:47(167) 0:39:06(165) 0:48:53(166) 0:24:04(161) 0:29:47 2    
167 101   867 Meske, Götz schönefeld TM55 4   1:13:06 0:09:41(161) 0:42:38(172) 0:52:19(172) 0:20:47(121) 0:29:56 2    
168   67 938 Weber, Ute Nuthetal TW55   4 1:13:50 0:09:45(165) 0:39:49(168) 0:49:34(168) 0:24:16(163) 0:30:40 2    
169 102   975 Chrisfenge, Marcel Berlin TM20 5   1:15:44 0:10:21(172) 0:41:52(171) 0:52:13(171) 0:23:31(157) 0:32:34 2    
170   68 945 Jaek, Mandy AKK Birkenheide TW35   3 1:16:02 0:09:33(153) 0:41:00(169) 0:50:33(169) 0:25:29(166) 0:32:52 2    
171   69 857 Lehmann, Lydia Berlin TW20   6 1:19:45 0:09:33(153) 0:43:17(173) 0:52:50(173) 0:26:55(170) 0:36:35 2    
172   70 941 Weigelt, Vanessa Berlin wJugA   6 1:23:24 0:09:38(159) 0:46:44(175) 0:56:22(174) 0:27:02(171) 0:40:14 2    
173   71 970 Pieper, Kathleen Spreeganer TW35   4 1:28:53 0:11:39(175) 0:45:16(174) 0:56:55(175) 0:31:58(173) 0:45:43 2    
      426 Walpuski, Dennis Tri-Finisher Berlin TM50     0:00:00 0:09:44(164) 0:38:47(164) 0:48:31(164) 0:00:00 0:00:00 2   ja
      940 Hartmann, Thomas Zehlendorfer Wespen TM50     0:00:00 0:07:31( 70 ) 0:30:02( 52 ) 0:37:33( 52 ) 0:00:00 0:00:00 2    
(c) 1990-2012 Blue Wonder Sport Promotion - Andreas Burow - Zeitnahme & Auswertung - www.Triathlon-Service.de